エカテリンブルク の空港の天気 - METARとTAF

コルツォヴォ空港 ( USSS / SVX ) - ロシア エカテリンブルク
飛行場実況気象(Metar)
観測時間05/26 05:00 YEKT (05/26 00:00 UTC)
風向・風速西 6m/s
視程10km以上
天気現象
なし
気温9℃
湿度87%
気圧1027hPa
METARUSSS 260000Z 28006MPS CAVOK 09/07 Q1027 R26R/010060 NOSIG RMK QFE749/0999
過去の天気等 Google飛行場航空写真 Wunderground天気予報

過去48時間のMETAR

飛行場予報(TAF)
発表時間: 5/26 03:57 YEKT (5/25 22:57 UTC)
予報対象時間: 26日5時 YEKT ~ 27日5時 YEKT
風向・風速西北西 3m/s 瞬間風速 14m/s
視程10km以上
全天の4割程度の積乱雲 雲底高度 910m
26日17時 YEKT ~ 26日19時 YEKT に徐々に
風向・風速北 3m/s 瞬間風速 12m/s
26日23時 YEKT ~ 26日24時 YEKT に徐々に
風向・風速北北東 3m/s 瞬間風速 8m/s
TAF USSS 252257Z 2600/2624 30003G14MPS 9999 SCT030CB
BECMG 2612/2614 01003G12MPS
BECMG 2618/2619 03003G08MPS